St. Thomas, VI

3:08 AM AST on April 25, 2017 (GMT -0400)
King | | Change Station

Elev 23 ft 18.34 °N, 64.97 °W | Updated 15 minutes ago

Mostly Cloudy
Mostly Cloudy
79 °F
Feels Like 79 °F
N
16
Wind Variable Wind from ESE

Today
High -- | Low -- °F
--% Chance of Precip.
Yesterday
High -- | Low -- °F
Precip. -- in
Pressure 29.90 in
Visibility 10.0 miles
Clouds Scattered Clouds 1800 ft
Mostly Cloudy 2500 ft
Dew Point 76 °F
Humidity 90%
Rainfall 0.00 in
Snow Depth Not available.
5:56 AM 6:39 PM
Waning Crescent, 2% visible
METAR TIST 250653Z 12014KT 10SM SCT018 BKN025 26/24 A2990 RMK AO2 SLP124 T02610244
Pressure 29.90 in
Visibility 10.0 miles
Clouds Scattered Clouds 1800 ft
Mostly Cloudy 2500 ft
Dew Point 76 °F
Humidity 90%
Rainfall 0.00 in
Snow Depth Not available.
5:56 AM 6:39 PM
Waning Crescent, 2% visible
METAR TIST 250653Z 12014KT 10SM SCT018 BKN025 26/24 A2990 RMK AO2 SLP124 T02610244

Get Severe Weather Alerts

Thanks for signing up!

Be on the lookout for a verification email in your inbox.

You'll start receiving the daily forecast at 8 AM.

×

10-Day Weather Forecast

Almanac

Astronomy

Apr. 25, 2017 Rise Set
Actual Time
Civil Twilight
Nautical Twilight
Astronomical Twilight
Moon
Length of Visible Light
Length of Day
Tomorrow will be .
, % of the Moon is Illuminated

Today's Extremes

State Highs State Lows

Community

WunderPhotos

WunderBlog® & News

Nearby

Air Quality

  Air Quality AQ Index Pollutant
Not available.

Snow Depth

Station Depth Elevation

Earthquake Activity

City Distance Mag. Time & Date
Minimum magnitude displayed is 2.5.

Coastal Water Temperatures

Place Temperature

Stations

Nearby Weather Stations

Station Location Temp. Windchill Dew Point Humidity Wind Precip. Elev Updated Type
                   

Watches & Warnings

There are currently no watches in effect.